sensor_id;sensor_type;location;lat;lon;timestamp;pressure;altitude;pressure_sealevel;temperature;humidity
72677;BME280;60755;51.374;10.662;2023-03-15T00:01:01;96497.31;;;0.28;79.90
72677;BME280;60755;51.374;10.662;2023-03-15T00:03:30;96504.03;;;0.23;80.72
72677;BME280;60755;51.374;10.662;2023-03-15T00:06:02;96506.13;;;0.13;81.36
72677;BME280;60755;51.374;10.662;2023-03-15T00:08:30;96507.66;;;0.01;82.07
72677;BME280;60755;51.374;10.662;2023-03-15T00:10:59;96508.19;;;-0.04;83.23
72677;BME280;60755;51.374;10.662;2023-03-15T00:13:26;96517.19;;;0.00;83.21
72677;BME280;60755;51.374;10.662;2023-03-15T00:15:56;96511.81;;;0.02;81.64
72677;BME280;60755;51.374;10.662;2023-03-15T00:18:23;96521.75;;;0.05;81.75
72677;BME280;60755;51.374;10.662;2023-03-15T00:20:51;96526.25;;;-0.04;81.59
72677;BME280;60755;51.374;10.662;2023-03-15T00:23:19;96521.28;;;-0.06;81.69
72677;BME280;60755;51.374;10.662;2023-03-15T00:25:47;96519.00;;;0.06;81.11
72677;BME280;60755;51.374;10.662;2023-03-15T00:28:21;96519.78;;;0.07;81.84
72677;BME280;60755;51.374;10.662;2023-03-15T00:31:01;96523.88;;;-0.06;82.24
72677;BME280;60755;51.374;10.662;2023-03-15T00:33:28;96515.69;;;-0.09;82.89
72677;BME280;60755;51.374;10.662;2023-03-15T00:36:03;96522.56;;;-0.16;83.15
72677;BME280;60755;51.374;10.662;2023-03-15T00:38:31;96521.16;;;-0.19;83.51
72677;BME280;60755;51.374;10.662;2023-03-15T00:41:03;96530.50;;;-0.18;82.16
72677;BME280;60755;51.374;10.662;2023-03-15T00:43:30;96537.63;;;-0.20;83.49
72677;BME280;60755;51.374;10.662;2023-03-15T00:45:58;96540.88;;;-0.33;85.15
72677;BME280;60755;51.374;10.662;2023-03-15T00:48:25;96538.41;;;-0.41;84.70
72677;BME280;60755;51.374;10.662;2023-03-15T00:51:02;96548.91;;;-0.42;86.04
72677;BME280;60755;51.374;10.662;2023-03-15T00:53:29;96551.50;;;-0.42;86.58
72677;BME280;60755;51.374;10.662;2023-03-15T00:55:56;96550.34;;;-0.40;85.82
72677;BME280;60755;51.374;10.662;2023-03-15T00:58:23;96551.81;;;-0.52;85.47
72677;BME280;60755;51.374;10.662;2023-03-15T01:00:50;96549.41;;;-0.53;85.79
72677;BME280;60755;51.374;10.662;2023-03-15T01:03:17;96554.13;;;-0.57;85.93
72677;BME280;60755;51.374;10.662;2023-03-15T01:05:44;96557.38;;;-0.48;86.94
72677;BME280;60755;51.374;10.662;2023-03-15T01:08:12;96545.75;;;-0.59;86.67
72677;BME280;60755;51.374;10.662;2023-03-15T01:10:39;96546.47;;;-0.65;86.88
72677;BME280;60755;51.374;10.662;2023-03-15T01:13:06;96551.22;;;-0.69;86.57
72677;BME280;60755;51.374;10.662;2023-03-15T01:15:33;96558.44;;;-0.79;86.41
72677;BME280;60755;51.374;10.662;2023-03-15T01:18:00;96563.03;;;-0.74;86.78
72677;BME280;60755;51.374;10.662;2023-03-15T01:20:27;96564.31;;;-0.70;87.19
72677;BME280;60755;51.374;10.662;2023-03-15T01:22:54;96558.31;;;-0.56;86.55
72677;BME280;60755;51.374;10.662;2023-03-15T01:25:22;96557.19;;;-0.68;86.91
72677;BME280;60755;51.374;10.662;2023-03-15T01:27:49;96563.41;;;-0.63;86.69
72677;BME280;60755;51.374;10.662;2023-03-15T01:30:16;96564.50;;;-0.72;87.74
72677;BME280;60755;51.374;10.662;2023-03-15T01:32:43;96557.50;;;-0.57;86.83
72677;BME280;60755;51.374;10.662;2023-03-15T01:35:10;96561.91;;;-0.36;85.05
72677;BME280;60755;51.374;10.662;2023-03-15T01:37:37;96570.56;;;-0.43;85.67
72677;BME280;60755;51.374;10.662;2023-03-15T01:40:06;96566.00;;;-0.41;85.59
72677;BME280;60755;51.374;10.662;2023-03-15T01:48:41;96574.09;;;-0.30;85.21
72677;BME280;60755;51.374;10.662;2023-03-15T01:51:14;96574.66;;;-0.49;85.81
72677;BME280;60755;51.374;10.662;2023-03-15T01:53:48;96570.28;;;-0.48;86.13
72677;BME280;60755;51.374;10.662;2023-03-15T01:56:17;96577.09;;;-0.62;87.63
72677;BME280;60755;51.374;10.662;2023-03-15T01:58:45;96568.34;;;-0.46;86.46
72677;BME280;60755;51.374;10.662;2023-03-15T02:01:14;96577.06;;;-0.47;86.44
72677;BME280;60755;51.374;10.662;2023-03-15T02:03:49;96572.94;;;-0.42;87.09
72677;BME280;60755;51.374;10.662;2023-03-15T02:06:19;96574.13;;;-0.44;85.64
72677;BME280;60755;51.374;10.662;2023-03-15T02:08:58;96570.38;;;-0.57;86.76
72677;BME280;60755;51.374;10.662;2023-03-15T02:11:32;96571.66;;;-0.67;87.20
72677;BME280;60755;51.374;10.662;2023-03-15T02:14:01;96569.44;;;-0.55;86.12
72677;BME280;60755;51.374;10.662;2023-03-15T02:16:29;96571.06;;;-0.69;87.06
72677;BME280;60755;51.374;10.662;2023-03-15T02:19:03;96570.16;;;-0.76;88.19
72677;BME280;60755;51.374;10.662;2023-03-15T02:21:38;96575.50;;;-0.78;88.75
72677;BME280;60755;51.374;10.662;2023-03-15T02:24:17;96575.41;;;-0.70;88.43
72677;BME280;60755;51.374;10.662;2023-03-15T02:26:49;96583.06;;;-0.91;89.74
72677;BME280;60755;51.374;10.662;2023-03-15T02:29:19;96579.41;;;-0.82;90.31
72677;BME280;60755;51.374;10.662;2023-03-15T02:31:48;96587.25;;;-0.90;89.88
72677;BME280;60755;51.374;10.662;2023-03-15T02:34:15;96590.47;;;-1.03;91.31
72677;BME280;60755;51.374;10.662;2023-03-15T02:36:42;96594.09;;;-0.97;90.86
72677;BME280;60755;51.374;10.662;2023-03-15T02:39:14;96590.72;;;-1.13;90.80
72677;BME280;60755;51.374;10.662;2023-03-15T02:41:47;96598.53;;;-1.21;92.39
72677;BME280;60755;51.374;10.662;2023-03-15T02:44:17;96597.56;;;-1.05;91.38
72677;BME280;60755;51.374;10.662;2023-03-15T02:46:49;96603.19;;;-1.01;91.38
72677;BME280;60755;51.374;10.662;2023-03-15T02:49:23;96598.53;;;-1.06;90.95
72677;BME280;60755;51.374;10.662;2023-03-15T02:51:51;96593.75;;;-1.09;91.87
72677;BME280;60755;51.374;10.662;2023-03-15T02:54:19;96603.59;;;-1.27;91.91
72677;BME280;60755;51.374;10.662;2023-03-15T02:56:46;96597.09;;;-1.38;92.82
72677;BME280;60755;51.374;10.662;2023-03-15T02:59:13;96595.69;;;-1.26;93.03
72677;BME280;60755;51.374;10.662;2023-03-15T03:01:40;96605.91;;;-1.18;92.44
72677;BME280;60755;51.374;10.662;2023-03-15T03:04:12;96607.88;;;-1.20;91.79
72677;BME280;60755;51.374;10.662;2023-03-15T03:06:40;96611.97;;;-1.10;92.36
72677;BME280;60755;51.374;10.662;2023-03-15T03:09:10;96613.91;;;-1.13;91.25
72677;BME280;60755;51.374;10.662;2023-03-15T03:11:37;96610.53;;;-0.98;91.88
72677;BME280;60755;51.374;10.662;2023-03-15T03:14:05;96616.59;;;-0.91;90.83
72677;BME280;60755;51.374;10.662;2023-03-15T03:16:32;96622.38;;;-0.89;92.02
72677;BME280;60755;51.374;10.662;2023-03-15T03:18:59;96622.03;;;-0.86;90.67
72677;BME280;60755;51.374;10.662;2023-03-15T03:21:31;96627.81;;;-0.69;87.57
72677;BME280;60755;51.374;10.662;2023-03-15T03:23:59;96629.41;;;-0.68;88.13
72677;BME280;60755;51.374;10.662;2023-03-15T03:26:26;96625.66;;;-0.66;88.68
72677;BME280;60755;51.374;10.662;2023-03-15T03:28:57;96624.84;;;-0.51;88.13
72677;BME280;60755;51.374;10.662;2023-03-15T03:31:27;96632.66;;;-0.45;85.01
72677;BME280;60755;51.374;10.662;2023-03-15T03:33:59;96628.72;;;-0.41;86.00
72677;BME280;60755;51.374;10.662;2023-03-15T03:36:28;96638.22;;;-0.26;84.76
72677;BME280;60755;51.374;10.662;2023-03-15T03:38:56;96641.28;;;-0.23;86.27
72677;BME280;60755;51.374;10.662;2023-03-15T03:41:25;96653.59;;;-0.04;82.19
72677;BME280;60755;51.374;10.662;2023-03-15T03:43:53;96656.06;;;0.05;81.59
72677;BME280;60755;51.374;10.662;2023-03-15T03:46:22;96646.97;;;0.09;82.03
72677;BME280;60755;51.374;10.662;2023-03-15T03:48:52;96655.44;;;0.24;80.77
72677;BME280;60755;51.374;10.662;2023-03-15T03:51:21;96649.13;;;0.26;80.67
72677;BME280;60755;51.374;10.662;2023-03-15T03:53:49;96655.31;;;0.32;81.13
72677;BME280;60755;51.374;10.662;2023-03-15T03:56:18;96661.31;;;0.33;81.81
72677;BME280;60755;51.374;10.662;2023-03-15T03:58:45;96656.56;;;0.36;81.11
72677;BME280;60755;51.374;10.662;2023-03-15T04:01:20;96662.78;;;0.42;80.91
72677;BME280;60755;51.374;10.662;2023-03-15T04:03:50;96673.19;;;0.48;81.05
72677;BME280;60755;51.374;10.662;2023-03-15T04:06:20;96673.34;;;0.47;82.54
72677;BME280;60755;51.374;10.662;2023-03-15T04:08:48;96677.25;;;0.58;83.49
72677;BME280;60755;51.374;10.662;2023-03-15T04:11:26;96686.16;;;0.55;82.28
72677;BME280;60755;51.374;10.662;2023-03-15T04:13:59;96692.75;;;0.58;81.99
72677;BME280;60755;51.374;10.662;2023-03-15T04:16:26;96696.34;;;0.57;84.09
72677;BME280;60755;51.374;10.662;2023-03-15T04:19:01;96692.13;;;0.55;83.53
72677;BME280;60755;51.374;10.662;2023-03-15T04:21:30;96686.97;;;0.55;85.04
72677;BME280;60755;51.374;10.662;2023-03-15T04:24:09;96695.88;;;0.53;86.03
72677;BME280;60755;51.374;10.662;2023-03-15T04:27:04;96698.66;;;0.51;86.58
72677;BME280;60755;51.374;10.662;2023-03-15T04:29:54;96702.97;;;0.44;87.45
72677;BME280;60755;51.374;10.662;2023-03-15T04:32:46;96694.59;;;0.42;86.57
72677;BME280;60755;51.374;10.662;2023-03-15T04:35:19;96704.16;;;0.42;86.82
72677;BME280;60755;51.374;10.662;2023-03-15T04:38:22;96705.66;;;0.36;87.75
72677;BME280;60755;51.374;10.662;2023-03-15T04:41:05;96723.75;;;0.36;88.66
72677;BME280;60755;51.374;10.662;2023-03-15T04:43:55;96717.44;;;0.24;88.89
72677;BME280;60755;51.374;10.662;2023-03-15T04:46:37;96717.59;;;0.37;88.22
72677;BME280;60755;51.374;10.662;2023-03-15T04:49:24;96724.75;;;0.35;88.39
72677;BME280;60755;51.374;10.662;2023-03-15T04:52:24;96731.66;;;0.49;89.12
72677;BME280;60755;51.374;10.662;2023-03-15T04:55:00;96737.94;;;0.40;88.00
72677;BME280;60755;51.374;10.662;2023-03-15T04:57:47;96733.59;;;0.47;88.29
72677;BME280;60755;51.374;10.662;2023-03-15T05:00:34;96732.47;;;0.50;89.06
72677;BME280;60755;51.374;10.662;2023-03-15T05:03:28;96739.16;;;0.44;90.09
72677;BME280;60755;51.374;10.662;2023-03-15T05:06:14;96737.28;;;0.38;91.49
72677;BME280;60755;51.374;10.662;2023-03-15T05:09:06;96739.63;;;0.33;92.26
72677;BME280;60755;51.374;10.662;2023-03-15T05:12:04;96737.16;;;0.46;93.03
72677;BME280;60755;51.374;10.662;2023-03-15T05:14:54;96744.94;;;0.46;92.39
72677;BME280;60755;51.374;10.662;2023-03-15T05:17:41;96753.75;;;0.52;92.82
72677;BME280;60755;51.374;10.662;2023-03-15T05:20:11;96749.97;;;0.54;92.55
72677;BME280;60755;51.374;10.662;2023-03-15T05:22:48;96751.16;;;0.52;92.64
72677;BME280;60755;51.374;10.662;2023-03-15T05:25:33;96753.38;;;0.55;92.95
72677;BME280;60755;51.374;10.662;2023-03-15T05:28:24;96759.97;;;0.58;91.51
72677;BME280;60755;51.374;10.662;2023-03-15T05:31:08;96761.13;;;0.55;91.52
72677;BME280;60755;51.374;10.662;2023-03-15T05:33:55;96758.25;;;0.65;91.53
72677;BME280;60755;51.374;10.662;2023-03-15T05:36:54;96764.84;;;0.67;90.24
72677;BME280;60755;51.374;10.662;2023-03-15T05:39:40;96768.34;;;0.60;90.52
72677;BME280;60755;51.374;10.662;2023-03-15T05:42:32;96771.06;;;0.73;90.88
72677;BME280;60755;51.374;10.662;2023-03-15T05:45:29;96776.69;;;0.62;90.31
72677;BME280;60755;51.374;10.662;2023-03-15T05:48:16;96773.13;;;0.63;90.66
72677;BME280;60755;51.374;10.662;2023-03-15T05:50:58;96785.94;;;0.71;89.04
72677;BME280;60755;51.374;10.662;2023-03-15T05:53:57;96794.69;;;0.70;89.80
72677;BME280;60755;51.374;10.662;2023-03-15T05:56:35;96798.59;;;0.80;90.56
72677;BME280;60755;51.374;10.662;2023-03-15T05:59:23;96801.59;;;0.84;89.72
72677;BME280;60755;51.374;10.662;2023-03-15T06:02:08;96808.38;;;0.85;89.91
72677;BME280;60755;51.374;10.662;2023-03-15T06:04:46;96806.84;;;0.91;90.31
72677;BME280;60755;51.374;10.662;2023-03-15T06:07:18;96807.31;;;1.01;88.56
72677;BME280;60755;51.374;10.662;2023-03-15T06:09:46;96820.44;;;0.99;88.42
72677;BME280;60755;51.374;10.662;2023-03-15T06:12:13;96816.25;;;0.98;87.89
72677;BME280;60755;51.374;10.662;2023-03-15T06:14:41;96818.53;;;1.08;88.89
72677;BME280;60755;51.374;10.662;2023-03-15T06:17:08;96820.13;;;1.09;87.82
72677;BME280;60755;51.374;10.662;2023-03-15T06:19:36;96826.31;;;1.08;88.24
72677;BME280;60755;51.374;10.662;2023-03-15T06:22:03;96827.16;;;1.15;88.95
72677;BME280;60755;51.374;10.662;2023-03-15T06:24:41;96821.19;;;0.93;87.09
72677;BME280;60755;51.374;10.662;2023-03-15T06:27:09;96829.19;;;0.98;88.08
72677;BME280;60755;51.374;10.662;2023-03-15T06:29:36;96836.97;;;0.98;89.22
72677;BME280;60755;51.374;10.662;2023-03-15T06:32:04;96838.56;;;0.99;88.85
72677;BME280;60755;51.374;10.662;2023-03-15T06:34:33;96845.72;;;0.97;88.56
72677;BME280;60755;51.374;10.662;2023-03-15T06:37:01;96852.72;;;1.03;90.20
72677;BME280;60755;51.374;10.662;2023-03-15T06:39:28;96851.84;;;0.96;89.28
72677;BME280;60755;51.374;10.662;2023-03-15T06:41:57;96859.06;;;1.01;88.45
72677;BME280;60755;51.374;10.662;2023-03-15T06:44:27;96869.09;;;1.10;89.70
72677;BME280;60755;51.374;10.662;2023-03-15T06:46:59;96870.69;;;0.90;90.77
72677;BME280;60755;51.374;10.662;2023-03-15T06:49:26;96870.34;;;0.78;93.34
72677;BME280;60755;51.374;10.662;2023-03-15T06:51:54;96870.22;;;0.65;93.34
72677;BME280;60755;51.374;10.662;2023-03-15T06:54:21;96874.66;;;0.71;93.03
72677;BME280;60755;51.374;10.662;2023-03-15T06:56:49;96876.53;;;0.63;93.89
72677;BME280;60755;51.374;10.662;2023-03-15T06:59:17;96880.50;;;0.80;94.05
72677;BME280;60755;51.374;10.662;2023-03-15T07:01:45;96874.44;;;0.88;93.94
72677;BME280;60755;51.374;10.662;2023-03-15T07:04:12;96888.66;;;1.13;91.58
72677;BME280;60755;51.374;10.662;2023-03-15T07:06:40;96890.13;;;1.22;93.19
72677;BME280;60755;51.374;10.662;2023-03-15T07:09:07;96896.84;;;1.38;89.97
72677;BME280;60755;51.374;10.662;2023-03-15T07:11:34;96890.81;;;1.31;90.30
72677;BME280;60755;51.374;10.662;2023-03-15T07:14:01;96900.91;;;1.26;92.04
72677;BME280;60755;51.374;10.662;2023-03-15T07:16:30;96903.19;;;1.35;91.74
72677;BME280;60755;51.374;10.662;2023-03-15T07:18:57;96900.28;;;1.24;90.44
72677;BME280;60755;51.374;10.662;2023-03-15T07:21:25;96908.06;;;1.45;89.66
72677;BME280;60755;51.374;10.662;2023-03-15T07:23:52;96914.09;;;1.31;89.84
72677;BME280;60755;51.374;10.662;2023-03-15T07:26:19;96914.97;;;1.59;88.53
72677;BME280;60755;51.374;10.662;2023-03-15T07:28:46;96916.94;;;1.57;88.58
72677;BME280;60755;51.374;10.662;2023-03-15T07:31:14;96925.19;;;1.67;88.99
72677;BME280;60755;51.374;10.662;2023-03-15T07:33:42;96928.03;;;1.51;87.15
72677;BME280;60755;51.374;10.662;2023-03-15T07:36:09;96920.28;;;1.30;88.32
72677;BME280;60755;51.374;10.662;2023-03-15T07:38:36;96935.50;;;1.39;89.55
72677;BME280;60755;51.374;10.662;2023-03-15T07:41:05;96928.53;;;1.61;87.77
72677;BME280;60755;51.374;10.662;2023-03-15T07:43:33;96929.34;;;2.11;85.35
72677;BME280;60755;51.374;10.662;2023-03-15T07:46:16;96942.56;;;2.23;87.26
72677;BME280;60755;51.374;10.662;2023-03-15T07:48:44;96940.25;;;2.35;83.81
72677;BME280;60755;51.374;10.662;2023-03-15T07:51:12;96942.06;;;2.34;83.92
72677;BME280;60755;51.374;10.662;2023-03-15T07:53:39;96949.22;;;2.04;85.57
72677;BME280;60755;51.374;10.662;2023-03-15T07:56:06;96948.13;;;1.71;85.06
72677;BME280;60755;51.374;10.662;2023-03-15T07:58:33;96958.97;;;1.81;88.20
72677;BME280;60755;51.374;10.662;2023-03-15T08:01:01;96962.41;;;2.09;85.48
72677;BME280;60755;51.374;10.662;2023-03-15T08:03:28;96955.53;;;1.95;86.40
72677;BME280;60755;51.374;10.662;2023-03-15T08:05:57;96961.50;;;1.95;85.01
72677;BME280;60755;51.374;10.662;2023-03-15T08:08:24;96967.38;;;1.61;85.99
72677;BME280;60755;51.374;10.662;2023-03-15T08:10:52;96961.19;;;1.41;89.95
72677;BME280;60755;51.374;10.662;2023-03-15T08:13:20;96963.16;;;1.60;90.00
72677;BME280;60755;51.374;10.662;2023-03-15T08:15:49;96961.75;;;1.58;89.67
72677;BME280;60755;51.374;10.662;2023-03-15T08:18:16;96966.00;;;1.65;88.31
72677;BME280;60755;51.374;10.662;2023-03-15T08:20:43;96975.22;;;1.32;90.32
72677;BME280;60755;51.374;10.662;2023-03-15T08:23:12;96974.06;;;1.34;90.33
72677;BME280;60755;51.374;10.662;2023-03-15T08:25:42;96975.81;;;1.49;90.82
72677;BME280;60755;51.374;10.662;2023-03-15T08:28:09;96978.03;;;1.73;90.78
72677;BME280;60755;51.374;10.662;2023-03-15T08:30:36;96977.41;;;1.92;88.38
72677;BME280;60755;51.374;10.662;2023-03-15T08:33:04;96984.03;;;1.95;87.59
72677;BME280;60755;51.374;10.662;2023-03-15T08:35:32;96984.88;;;2.02;87.77
72677;BME280;60755;51.374;10.662;2023-03-15T08:38:00;96994.97;;;2.18;87.62
72677;BME280;60755;51.374;10.662;2023-03-15T08:40:29;96994.63;;;2.49;87.46
72677;BME280;60755;51.374;10.662;2023-03-15T08:42:58;97003.19;;;2.50;86.02
72677;BME280;60755;51.374;10.662;2023-03-15T08:45:26;97004.22;;;2.28;86.16
72677;BME280;60755;51.374;10.662;2023-03-15T08:47:54;97005.06;;;2.63;85.43
72677;BME280;60755;51.374;10.662;2023-03-15T08:50:21;97013.28;;;2.66;83.24
72677;BME280;60755;51.374;10.662;2023-03-15T08:52:49;97007.34;;;2.79;82.99
72677;BME280;60755;51.374;10.662;2023-03-15T08:55:16;97013.19;;;2.04;82.41
72677;BME280;60755;51.374;10.662;2023-03-15T08:57:45;97014.59;;;2.28;81.59
72677;BME280;60755;51.374;10.662;2023-03-15T09:00:13;97026.06;;;3.09;83.23
72677;BME280;60755;51.374;10.662;2023-03-15T09:02:45;97021.81;;;3.43;81.51
72677;BME280;60755;51.374;10.662;2023-03-15T09:05:14;97027.59;;;2.90;77.73
72677;BME280;60755;51.374;10.662;2023-03-15T09:07:42;97021.00;;;2.60;80.19
72677;BME280;60755;51.374;10.662;2023-03-15T09:10:12;97030.88;;;2.00;80.30
72677;BME280;60755;51.374;10.662;2023-03-15T09:12:40;97034.41;;;1.92;82.67
72677;BME280;60755;51.374;10.662;2023-03-15T09:15:10;97037.44;;;2.45;80.97
72677;BME280;60755;51.374;10.662;2023-03-15T09:17:38;97031.88;;;3.11;82.05
72677;BME280;60755;51.374;10.662;2023-03-15T09:20:07;97038.47;;;3.68;80.97
72677;BME280;60755;51.374;10.662;2023-03-15T09:22:39;97041.19;;;4.54;78.45
72677;BME280;60755;51.374;10.662;2023-03-15T09:25:07;97041.41;;;4.66;76.09
72677;BME280;60755;51.374;10.662;2023-03-15T09:27:35;97054.97;;;3.95;75.06
72677;BME280;60755;51.374;10.662;2023-03-15T09:30:03;97051.00;;;4.26;74.56
72677;BME280;60755;51.374;10.662;2023-03-15T09:32:32;97045.59;;;4.67;72.39
72677;BME280;60755;51.374;10.662;2023-03-15T09:35:01;97056.78;;;4.21;73.72
72677;BME280;60755;51.374;10.662;2023-03-15T09:37:29;97047.78;;;4.04;70.73
72677;BME280;60755;51.374;10.662;2023-03-15T09:39:56;97056.34;;;3.91;72.38
72677;BME280;60755;51.374;10.662;2023-03-15T09:42:32;97052.06;;;3.57;72.29
72677;BME280;60755;51.374;10.662;2023-03-15T09:45:06;97059.66;;;3.65;71.29
72677;BME280;60755;51.374;10.662;2023-03-15T09:47:45;97062.84;;;3.54;71.88
72677;BME280;60755;51.374;10.662;2023-03-15T09:50:20;97069.59;;;4.22;70.97
72677;BME280;60755;51.374;10.662;2023-03-15T09:52:51;97068.00;;;4.68;69.27
72677;BME280;60755;51.374;10.662;2023-03-15T09:55:22;97063.81;;;3.53;69.82
72677;BME280;60755;51.374;10.662;2023-03-15T09:57:52;97075.72;;;3.34;71.39
72677;BME280;60755;51.374;10.662;2023-03-15T10:00:26;97079.19;;;3.48;72.56
72677;BME280;60755;51.374;10.662;2023-03-15T10:02:59;97079.31;;;3.81;70.01
72677;BME280;60755;51.374;10.662;2023-03-15T10:05:38;97089.75;;;3.40;68.56
72677;BME280;60755;51.374;10.662;2023-03-15T10:08:10;97085.06;;;3.63;67.38
72677;BME280;60755;51.374;10.662;2023-03-15T10:10:44;97083.75;;;3.93;69.63
72677;BME280;60755;51.374;10.662;2023-03-15T10:13:23;97090.41;;;4.56;67.95
72677;BME280;60755;51.374;10.662;2023-03-15T10:16:01;97084.75;;;4.06;66.50
72677;BME280;60755;51.374;10.662;2023-03-15T10:18:45;97082.75;;;3.95;67.68
72677;BME280;60755;51.374;10.662;2023-03-15T10:21:24;97097.78;;;3.51;68.52
72677;BME280;60755;51.374;10.662;2023-03-15T10:23:56;97100.50;;;3.36;68.52
72677;BME280;60755;51.374;10.662;2023-03-15T10:26:26;97110.78;;;2.89;68.19
72677;BME280;60755;51.374;10.662;2023-03-15T10:28:54;97111.44;;;2.91;66.79
72677;BME280;60755;51.374;10.662;2023-03-15T10:31:24;97114.34;;;3.09;67.26
72677;BME280;60755;51.374;10.662;2023-03-15T10:33:54;97117.72;;;3.38;65.20
72677;BME280;60755;51.374;10.662;2023-03-15T10:36:23;97118.91;;;3.42;62.70
72677;BME280;60755;51.374;10.662;2023-03-15T10:38:51;97121.94;;;3.93;63.99
72677;BME280;60755;51.374;10.662;2023-03-15T10:41:34;97123.88;;;4.59;62.43
72677;BME280;60755;51.374;10.662;2023-03-15T10:44:04;97120.84;;;4.35;61.96
72677;BME280;60755;51.374;10.662;2023-03-15T10:46:32;97124.94;;;3.49;62.14
72677;BME280;60755;51.374;10.662;2023-03-15T10:49:09;97130.66;;;3.31;63.98
72677;BME280;60755;51.374;10.662;2023-03-15T10:51:39;97136.44;;;3.33;64.20
72677;BME280;60755;51.374;10.662;2023-03-15T10:54:12;97143.50;;;3.11;63.90
72677;BME280;60755;51.374;10.662;2023-03-15T10:56:46;97140.38;;;3.22;65.78
72677;BME280;60755;51.374;10.662;2023-03-15T10:59:16;97142.09;;;3.08;65.33
72677;BME280;60755;51.374;10.662;2023-03-15T11:01:47;97146.38;;;2.95;64.97
72677;BME280;60755;51.374;10.662;2023-03-15T11:04:18;97150.06;;;3.07;66.66
72677;BME280;60755;51.374;10.662;2023-03-15T11:06:48;97151.88;;;3.06;64.74
72677;BME280;60755;51.374;10.662;2023-03-15T11:09:18;97152.94;;;2.91;64.99
72677;BME280;60755;51.374;10.662;2023-03-15T11:11:52;97149.44;;;2.77;66.69
72677;BME280;60755;51.374;10.662;2023-03-15T11:14:20;97152.72;;;2.64;66.36
72677;BME280;60755;51.374;10.662;2023-03-15T11:16:50;97155.94;;;2.66;67.82
72677;BME280;60755;51.374;10.662;2023-03-15T11:19:21;97157.69;;;2.87;67.35
72677;BME280;60755;51.374;10.662;2023-03-15T11:21:50;97164.97;;;2.98;68.05
72677;BME280;60755;51.374;10.662;2023-03-15T11:24:23;97161.22;;;2.79;66.69
72677;BME280;60755;51.374;10.662;2023-03-15T11:26:51;97168.06;;;2.87;69.91
72677;BME280;60755;51.374;10.662;2023-03-15T11:29:26;97158.56;;;2.94;67.47
72677;BME280;60755;51.374;10.662;2023-03-15T11:31:54;97165.38;;;2.74;67.19
72677;BME280;60755;51.374;10.662;2023-03-15T11:34:33;97169.66;;;2.82;70.32
72677;BME280;60755;51.374;10.662;2023-03-15T11:37:04;97164.00;;;2.78;68.04
72677;BME280;60755;51.374;10.662;2023-03-15T11:39:39;97169.25;;;2.85;69.90
72677;BME280;60755;51.374;10.662;2023-03-15T11:42:15;97170.59;;;3.02;70.29
72677;BME280;60755;51.374;10.662;2023-03-15T11:44:47;97155.50;;;3.47;70.33
72677;BME280;60755;51.374;10.662;2023-03-15T11:47:22;97151.63;;;3.36;67.21
72677;BME280;60755;51.374;10.662;2023-03-15T11:49:54;97155.44;;;3.33;64.47
72677;BME280;60755;51.374;10.662;2023-03-15T11:52:24;97159.63;;;3.34;64.69
72677;BME280;60755;51.374;10.662;2023-03-15T11:54:54;97151.88;;;3.82;63.98
72677;BME280;60755;51.374;10.662;2023-03-15T11:57:40;97154.00;;;4.13;63.84
72677;BME280;60755;51.374;10.662;2023-03-15T12:06:33;97156.09;;;5.24;60.80
72677;BME280;60755;51.374;10.662;2023-03-15T12:09:00;97156.31;;;4.76;62.70
72677;BME280;60755;51.374;10.662;2023-03-15T12:11:39;97162.09;;;4.65;62.90
72677;BME280;60755;51.374;10.662;2023-03-15T12:14:24;97152.06;;;4.42;61.64
72677;BME280;60755;51.374;10.662;2023-03-15T12:17:30;97156.84;;;4.25;62.58
72677;BME280;60755;51.374;10.662;2023-03-15T12:19:44;97168.09;;;3.50;64.97
72677;BME280;60755;51.374;10.662;2023-03-15T12:22:15;97161.66;;;3.39;65.09
72677;BME280;60755;51.374;10.662;2023-03-15T12:24:45;97175.94;;;3.22;66.77
72677;BME280;60755;51.374;10.662;2023-03-15T12:27:15;97184.75;;;3.27;67.53
72677;BME280;60755;51.374;10.662;2023-03-15T12:29:44;97175.59;;;3.31;67.62
72677;BME280;60755;51.374;10.662;2023-03-15T12:32:13;97185.50;;;3.49;66.22
72677;BME280;60755;51.374;10.662;2023-03-15T12:34:44;97177.06;;;3.82;64.95
72677;BME280;60755;51.374;10.662;2023-03-15T12:37:17;97182.63;;;4.20;63.89
72677;BME280;60755;51.374;10.662;2023-03-15T12:39:47;97176.91;;;4.71;63.03
72677;BME280;60755;51.374;10.662;2023-03-15T12:45:39;97172.50;;;4.65;55.69
72677;BME280;60755;51.374;10.662;2023-03-15T12:48:27;97173.47;;;4.37;56.63
72677;BME280;60755;51.374;10.662;2023-03-15T12:51:03;97180.94;;;3.99;57.45
72677;BME280;60755;51.374;10.662;2023-03-15T12:53:51;97173.69;;;4.56;59.58
72677;BME280;60755;51.374;10.662;2023-03-15T12:56:35;97171.53;;;4.99;59.43
72677;BME280;60755;51.374;10.662;2023-03-15T12:59:14;97164.91;;;4.96;59.92
72677;BME280;60755;51.374;10.662;2023-03-15T13:01:44;97178.91;;;4.56;57.74
72677;BME280;60755;51.374;10.662;2023-03-15T13:04:11;97182.53;;;4.68;59.39
72677;BME280;60755;51.374;10.662;2023-03-15T13:06:48;97177.72;;;4.78;59.52
72677;BME280;60755;51.374;10.662;2023-03-15T13:09:34;97178.06;;;4.48;58.87
72677;BME280;60755;51.374;10.662;2023-03-15T13:12:10;97182.53;;;4.88;62.04
72677;BME280;60755;51.374;10.662;2023-03-15T13:14:45;97189.28;;;4.36;65.60
72677;BME280;60755;51.374;10.662;2023-03-15T13:17:24;97202.94;;;3.97;63.97
72677;BME280;60755;51.374;10.662;2023-03-15T13:20:10;97216.03;;;2.91;73.69
72677;BME280;60755;51.374;10.662;2023-03-15T13:22:47;97235.53;;;2.44;78.53
72677;BME280;60755;51.374;10.662;2023-03-15T13:25:22;97238.97;;;1.42;87.51
72677;BME280;60755;51.374;10.662;2023-03-15T13:27:54;97249.59;;;1.32;92.82
72677;BME280;60755;51.374;10.662;2023-03-15T13:30:32;97258.13;;;1.18;94.40
72677;BME280;60755;51.374;10.662;2023-03-15T13:33:17;97265.50;;;1.06;94.22
72677;BME280;60755;51.374;10.662;2023-03-15T13:35:47;97255.13;;;1.29;94.84
72677;BME280;60755;51.374;10.662;2023-03-15T13:38:29;97247.56;;;1.57;92.53
72677;BME280;60755;51.374;10.662;2023-03-15T13:40:59;97240.00;;;1.85;87.48